sensor_id;sensor_type;location;lat;lon;timestamp;P1;durP1;ratioP1;P2;durP2;ratioP2
42084;SDS011;27746;52.228;20.890;2022-12-07T00:01:32;54.42;;;26.38;;
42084;SDS011;27746;52.228;20.890;2022-12-07T00:04:00;52.85;;;25.48;;
42084;SDS011;27746;52.228;20.890;2022-12-07T00:06:30;51.97;;;26.90;;
42084;SDS011;27746;52.228;20.890;2022-12-07T00:08:59;50.53;;;27.10;;
42084;SDS011;27746;52.228;20.890;2022-12-07T00:11:25;56.58;;;26.38;;
42084;SDS011;27746;52.228;20.890;2022-12-07T00:13:53;51.33;;;27.10;;
42084;SDS011;27746;52.228;20.890;2022-12-07T00:16:22;58.90;;;30.40;;
42084;SDS011;27746;52.228;20.890;2022-12-07T00:18:51;57.88;;;29.60;;
42084;SDS011;27746;52.228;20.890;2022-12-07T00:21:19;53.58;;;28.00;;
42084;SDS011;27746;52.228;20.890;2022-12-07T00:23:50;59.40;;;30.85;;
42084;SDS011;27746;52.228;20.890;2022-12-07T00:26:19;66.88;;;31.05;;
42084;SDS011;27746;52.228;20.890;2022-12-07T00:28:49;66.70;;;32.35;;
42084;SDS011;27746;52.228;20.890;2022-12-07T00:31:17;64.97;;;30.73;;
42084;SDS011;27746;52.228;20.890;2022-12-07T00:33:46;67.75;;;33.38;;
42084;SDS011;27746;52.228;20.890;2022-12-07T00:36:15;68.47;;;35.25;;
42084;SDS011;27746;52.228;20.890;2022-12-07T00:38:42;61.95;;;33.63;;
42084;SDS011;27746;52.228;20.890;2022-12-07T00:41:10;73.57;;;36.72;;
42084;SDS011;27746;52.228;20.890;2022-12-07T00:43:40;69.18;;;34.15;;
42084;SDS011;27746;52.228;20.890;2022-12-07T00:46:08;76.32;;;38.30;;
42084;SDS011;27746;52.228;20.890;2022-12-07T00:48:35;67.20;;;34.30;;
42084;SDS011;27746;52.228;20.890;2022-12-07T00:51:03;67.20;;;32.85;;
42084;SDS011;27746;52.228;20.890;2022-12-07T00:53:30;69.32;;;33.83;;
42084;SDS011;27746;52.228;20.890;2022-12-07T00:56:04;70.60;;;34.25;;
42084;SDS011;27746;52.228;20.890;2022-12-07T00:58:31;65.35;;;33.25;;
42084;SDS011;27746;52.228;20.890;2022-12-07T01:01:00;67.53;;;34.13;;
42084;SDS011;27746;52.228;20.890;2022-12-07T01:03:28;62.10;;;31.90;;
42084;SDS011;27746;52.228;20.890;2022-12-07T01:05:55;65.03;;;32.88;;
42084;SDS011;27746;52.228;20.890;2022-12-07T01:08:23;65.50;;;33.03;;
42084;SDS011;27746;52.228;20.890;2022-12-07T01:10:57;65.57;;;32.58;;
42084;SDS011;27746;52.228;20.890;2022-12-07T01:13:25;62.95;;;30.90;;
42084;SDS011;27746;52.228;20.890;2022-12-07T01:15:55;59.97;;;32.35;;
42084;SDS011;27746;52.228;20.890;2022-12-07T01:18:28;62.70;;;31.42;;
42084;SDS011;27746;52.228;20.890;2022-12-07T01:20:57;59.97;;;31.17;;
42084;SDS011;27746;52.228;20.890;2022-12-07T01:23:25;59.10;;;30.52;;
42084;SDS011;27746;52.228;20.890;2022-12-07T01:25:54;53.60;;;27.48;;
42084;SDS011;27746;52.228;20.890;2022-12-07T01:28:21;55.10;;;27.80;;
42084;SDS011;27746;52.228;20.890;2022-12-07T01:30:54;52.05;;;26.08;;
42084;SDS011;27746;52.228;20.890;2022-12-07T01:33:22;48.88;;;27.70;;
42084;SDS011;27746;52.228;20.890;2022-12-07T01:35:50;43.05;;;23.55;;
42084;SDS011;27746;52.228;20.890;2022-12-07T01:38:17;45.97;;;24.88;;
42084;SDS011;27746;52.228;20.890;2022-12-07T01:40:43;41.90;;;23.23;;
42084;SDS011;27746;52.228;20.890;2022-12-07T01:43:13;42.75;;;22.00;;
42084;SDS011;27746;52.228;20.890;2022-12-07T01:45:42;36.47;;;20.38;;
42084;SDS011;27746;52.228;20.890;2022-12-07T01:48:09;37.15;;;19.75;;
42084;SDS011;27746;52.228;20.890;2022-12-07T01:50:39;32.63;;;18.50;;
42084;SDS011;27746;52.228;20.890;2022-12-07T01:53:09;31.85;;;19.25;;
42084;SDS011;27746;52.228;20.890;2022-12-07T01:55:38;34.78;;;16.98;;
42084;SDS011;27746;52.228;20.890;2022-12-07T01:58:08;28.63;;;14.85;;
42084;SDS011;27746;52.228;20.890;2022-12-07T02:00:36;28.65;;;15.40;;
42084;SDS011;27746;52.228;20.890;2022-12-07T02:03:04;23.80;;;13.10;;
42084;SDS011;27746;52.228;20.890;2022-12-07T02:05:34;22.95;;;13.25;;
42084;SDS011;27746;52.228;20.890;2022-12-07T02:08:03;24.50;;;13.75;;
42084;SDS011;27746;52.228;20.890;2022-12-07T02:10:32;22.58;;;13.13;;
42084;SDS011;27746;52.228;20.890;2022-12-07T02:13:00;25.98;;;13.30;;
42084;SDS011;27746;52.228;20.890;2022-12-07T02:15:33;21.30;;;12.05;;
42084;SDS011;27746;52.228;20.890;2022-12-07T02:18:07;23.48;;;11.50;;
42084;SDS011;27746;52.228;20.890;2022-12-07T02:20:42;19.42;;;11.60;;
42084;SDS011;27746;52.228;20.890;2022-12-07T02:23:36;21.23;;;10.75;;
42084;SDS011;27746;52.228;20.890;2022-12-07T02:29:37;19.38;;;10.07;;
42084;SDS011;27746;52.228;20.890;2022-12-07T02:32:08;20.08;;;11.32;;
42084;SDS011;27746;52.228;20.890;2022-12-07T02:34:42;17.83;;;10.53;;
42084;SDS011;27746;52.228;20.890;2022-12-07T02:37:17;19.17;;;10.13;;
42084;SDS011;27746;52.228;20.890;2022-12-07T02:39:53;21.20;;;10.75;;
42084;SDS011;27746;52.228;20.890;2022-12-07T02:42:23;18.33;;;10.00;;
42084;SDS011;27746;52.228;20.890;2022-12-07T02:44:54;20.83;;;10.30;;
42084;SDS011;27746;52.228;20.890;2022-12-07T02:47:21;18.73;;;10.20;;
42084;SDS011;27746;52.228;20.890;2022-12-07T02:49:50;22.42;;;11.70;;
42084;SDS011;27746;52.228;20.890;2022-12-07T02:52:18;14.77;;;9.65;;
42084;SDS011;27746;52.228;20.890;2022-12-07T02:54:45;19.15;;;10.65;;
42084;SDS011;27746;52.228;20.890;2022-12-07T02:57:18;23.77;;;11.52;;
42084;SDS011;27746;52.228;20.890;2022-12-07T03:00:02;20.73;;;10.85;;
42084;SDS011;27746;52.228;20.890;2022-12-07T03:02:35;17.38;;;9.75;;
42084;SDS011;27746;52.228;20.890;2022-12-07T03:05:15;21.75;;;11.15;;
42084;SDS011;27746;52.228;20.890;2022-12-07T03:07:59;21.48;;;11.95;;
42084;SDS011;27746;52.228;20.890;2022-12-07T03:10:34;21.60;;;12.60;;
42084;SDS011;27746;52.228;20.890;2022-12-07T03:13:08;24.10;;;12.95;;
42084;SDS011;27746;52.228;20.890;2022-12-07T03:15:40;24.58;;;12.23;;
42084;SDS011;27746;52.228;20.890;2022-12-07T03:18:13;20.30;;;12.27;;
42084;SDS011;27746;52.228;20.890;2022-12-07T03:20:44;23.25;;;11.82;;
42084;SDS011;27746;52.228;20.890;2022-12-07T03:23:14;22.08;;;11.95;;
42084;SDS011;27746;52.228;20.890;2022-12-07T03:25:44;22.67;;;11.73;;
42084;SDS011;27746;52.228;20.890;2022-12-07T03:28:14;15.57;;;9.18;;
42084;SDS011;27746;52.228;20.890;2022-12-07T03:30:46;14.68;;;8.48;;
42084;SDS011;27746;52.228;20.890;2022-12-07T03:33:16;13.55;;;8.70;;
42084;SDS011;27746;52.228;20.890;2022-12-07T03:35:47;15.32;;;9.07;;
42084;SDS011;27746;52.228;20.890;2022-12-07T03:38:18;14.48;;;8.25;;
42084;SDS011;27746;52.228;20.890;2022-12-07T03:40:49;13.38;;;8.23;;
42084;SDS011;27746;52.228;20.890;2022-12-07T03:43:22;15.18;;;7.90;;
42084;SDS011;27746;52.228;20.890;2022-12-07T03:45:51;12.98;;;7.78;;
42084;SDS011;27746;52.228;20.890;2022-12-07T03:48:28;15.05;;;8.57;;
42084;SDS011;27746;52.228;20.890;2022-12-07T03:51:01;13.83;;;7.67;;
42084;SDS011;27746;52.228;20.890;2022-12-07T03:56:02;11.70;;;6.22;;
42084;SDS011;27746;52.228;20.890;2022-12-07T03:58:30;15.85;;;8.30;;
42084;SDS011;27746;52.228;20.890;2022-12-07T04:01:00;10.88;;;7.28;;
42084;SDS011;27746;52.228;20.890;2022-12-07T04:03:27;16.08;;;8.02;;
42084;SDS011;27746;52.228;20.890;2022-12-07T04:05:54;15.15;;;8.18;;
42084;SDS011;27746;52.228;20.890;2022-12-07T04:08:21;14.88;;;9.00;;
42084;SDS011;27746;52.228;20.890;2022-12-07T04:10:48;12.95;;;6.88;;
42084;SDS011;27746;52.228;20.890;2022-12-07T04:13:15;12.65;;;7.22;;
42084;SDS011;27746;52.228;20.890;2022-12-07T04:15:41;14.38;;;7.57;;
42084;SDS011;27746;52.228;20.890;2022-12-07T04:18:09;14.05;;;7.72;;
42084;SDS011;27746;52.228;20.890;2022-12-07T04:20:36;13.95;;;8.48;;
42084;SDS011;27746;52.228;20.890;2022-12-07T04:23:03;15.18;;;8.65;;
42084;SDS011;27746;52.228;20.890;2022-12-07T04:25:30;14.40;;;7.80;;
42084;SDS011;27746;52.228;20.890;2022-12-07T04:27:57;14.60;;;7.97;;
42084;SDS011;27746;52.228;20.890;2022-12-07T04:30:23;14.90;;;8.40;;
42084;SDS011;27746;52.228;20.890;2022-12-07T04:32:50;15.05;;;8.27;;
42084;SDS011;27746;52.228;20.890;2022-12-07T04:35:18;13.65;;;7.85;;
42084;SDS011;27746;52.228;20.890;2022-12-07T04:37:45;14.20;;;8.07;;
42084;SDS011;27746;52.228;20.890;2022-12-07T04:40:12;12.57;;;8.23;;
42084;SDS011;27746;52.228;20.890;2022-12-07T04:42:39;12.98;;;7.50;;
42084;SDS011;27746;52.228;20.890;2022-12-07T04:45:06;15.45;;;8.88;;
42084;SDS011;27746;52.228;20.890;2022-12-07T04:47:35;15.45;;;9.82;;
42084;SDS011;27746;52.228;20.890;2022-12-07T04:50:02;13.98;;;7.85;;
42084;SDS011;27746;52.228;20.890;2022-12-07T04:52:33;14.00;;;7.85;;
42084;SDS011;27746;52.228;20.890;2022-12-07T04:54:59;13.27;;;8.30;;
42084;SDS011;27746;52.228;20.890;2022-12-07T04:57:26;15.07;;;7.85;;
42084;SDS011;27746;52.228;20.890;2022-12-07T04:59:53;16.83;;;9.43;;
42084;SDS011;27746;52.228;20.890;2022-12-07T05:02:20;16.50;;;8.65;;
42084;SDS011;27746;52.228;20.890;2022-12-07T05:04:47;15.23;;;9.00;;
42084;SDS011;27746;52.228;20.890;2022-12-07T05:07:13;18.38;;;9.93;;
42084;SDS011;27746;52.228;20.890;2022-12-07T05:09:42;17.33;;;8.82;;
42084;SDS011;27746;52.228;20.890;2022-12-07T05:12:08;15.73;;;9.13;;
42084;SDS011;27746;52.228;20.890;2022-12-07T05:14:35;18.60;;;9.40;;
42084;SDS011;27746;52.228;20.890;2022-12-07T05:17:02;16.00;;;9.02;;
42084;SDS011;27746;52.228;20.890;2022-12-07T05:19:29;15.88;;;8.35;;
42084;SDS011;27746;52.228;20.890;2022-12-07T05:21:56;14.55;;;8.52;;
42084;SDS011;27746;52.228;20.890;2022-12-07T05:24:22;12.77;;;7.95;;
42084;SDS011;27746;52.228;20.890;2022-12-07T05:26:51;13.40;;;8.13;;
42084;SDS011;27746;52.228;20.890;2022-12-07T05:29:17;15.50;;;8.55;;
42084;SDS011;27746;52.228;20.890;2022-12-07T05:31:44;17.55;;;9.73;;
42084;SDS011;27746;52.228;20.890;2022-12-07T05:34:12;20.08;;;9.88;;
42084;SDS011;27746;52.228;20.890;2022-12-07T05:36:38;17.00;;;9.88;;
42084;SDS011;27746;52.228;20.890;2022-12-07T05:39:05;13.73;;;8.95;;
42084;SDS011;27746;52.228;20.890;2022-12-07T05:41:33;18.73;;;9.30;;
42084;SDS011;27746;52.228;20.890;2022-12-07T05:44:19;19.52;;;10.20;;
42084;SDS011;27746;52.228;20.890;2022-12-07T05:46:45;22.27;;;10.25;;
42084;SDS011;27746;52.228;20.890;2022-12-07T05:49:14;17.65;;;8.80;;
42084;SDS011;27746;52.228;20.890;2022-12-07T05:51:41;16.17;;;9.50;;
42084;SDS011;27746;52.228;20.890;2022-12-07T05:54:08;18.70;;;10.18;;
42084;SDS011;27746;52.228;20.890;2022-12-07T05:56:35;17.40;;;8.63;;
42084;SDS011;27746;52.228;20.890;2022-12-07T05:59:02;18.77;;;9.57;;
42084;SDS011;27746;52.228;20.890;2022-12-07T06:01:47;17.77;;;10.35;;
42084;SDS011;27746;52.228;20.890;2022-12-07T06:04:14;19.52;;;9.43;;
42084;SDS011;27746;52.228;20.890;2022-12-07T06:06:41;18.45;;;9.80;;
42084;SDS011;27746;52.228;20.890;2022-12-07T06:09:08;18.58;;;9.48;;
42084;SDS011;27746;52.228;20.890;2022-12-07T06:11:35;19.75;;;10.68;;
42084;SDS011;27746;52.228;20.890;2022-12-07T06:14:24;14.98;;;9.13;;
42084;SDS011;27746;52.228;20.890;2022-12-07T06:16:53;18.70;;;9.88;;
42084;SDS011;27746;52.228;20.890;2022-12-07T06:19:20;16.77;;;9.20;;
42084;SDS011;27746;52.228;20.890;2022-12-07T06:21:46;17.15;;;9.35;;
42084;SDS011;27746;52.228;20.890;2022-12-07T06:24:14;18.27;;;9.60;;
42084;SDS011;27746;52.228;20.890;2022-12-07T06:26:42;19.17;;;10.15;;
42084;SDS011;27746;52.228;20.890;2022-12-07T06:29:08;19.23;;;10.35;;
42084;SDS011;27746;52.228;20.890;2022-12-07T06:31:36;17.50;;;10.55;;
42084;SDS011;27746;52.228;20.890;2022-12-07T06:34:05;20.98;;;10.50;;
42084;SDS011;27746;52.228;20.890;2022-12-07T06:36:35;21.05;;;10.02;;
42084;SDS011;27746;52.228;20.890;2022-12-07T06:39:02;19.02;;;11.23;;
42084;SDS011;27746;52.228;20.890;2022-12-07T06:41:30;19.77;;;10.52;;
42084;SDS011;27746;52.228;20.890;2022-12-07T06:43:56;18.48;;;9.48;;
42084;SDS011;27746;52.228;20.890;2022-12-07T06:46:23;19.90;;;10.98;;
42084;SDS011;27746;52.228;20.890;2022-12-07T06:48:50;15.45;;;9.30;;
42084;SDS011;27746;52.228;20.890;2022-12-07T06:51:18;17.48;;;10.65;;
42084;SDS011;27746;52.228;20.890;2022-12-07T06:53:45;16.42;;;10.27;;
42084;SDS011;27746;52.228;20.890;2022-12-07T06:56:12;19.50;;;10.55;;
42084;SDS011;27746;52.228;20.890;2022-12-07T06:58:39;19.10;;;10.07;;
42084;SDS011;27746;52.228;20.890;2022-12-07T07:01:08;20.10;;;10.85;;
42084;SDS011;27746;52.228;20.890;2022-12-07T07:03:36;17.75;;;9.73;;
42084;SDS011;27746;52.228;20.890;2022-12-07T07:06:04;18.23;;;10.48;;
42084;SDS011;27746;52.228;20.890;2022-12-07T07:08:33;14.60;;;8.63;;
42084;SDS011;27746;52.228;20.890;2022-12-07T07:11:00;21.48;;;10.63;;
42084;SDS011;27746;52.228;20.890;2022-12-07T07:13:27;17.63;;;9.55;;
42084;SDS011;27746;52.228;20.890;2022-12-07T07:15:54;14.93;;;8.98;;
42084;SDS011;27746;52.228;20.890;2022-12-07T07:18:21;14.82;;;8.63;;
42084;SDS011;27746;52.228;20.890;2022-12-07T07:20:49;16.60;;;9.05;;
42084;SDS011;27746;52.228;20.890;2022-12-07T07:23:16;17.38;;;8.75;;
42084;SDS011;27746;52.228;20.890;2022-12-07T07:25:45;16.15;;;8.98;;
42084;SDS011;27746;52.228;20.890;2022-12-07T07:28:12;18.75;;;8.52;;
42084;SDS011;27746;52.228;20.890;2022-12-07T07:30:38;16.58;;;9.20;;
42084;SDS011;27746;52.228;20.890;2022-12-07T07:33:06;18.50;;;8.60;;
42084;SDS011;27746;52.228;20.890;2022-12-07T07:35:33;16.42;;;8.65;;
42084;SDS011;27746;52.228;20.890;2022-12-07T07:38:00;17.05;;;9.15;;
42084;SDS011;27746;52.228;20.890;2022-12-07T07:40:28;18.30;;;9.63;;
42084;SDS011;27746;52.228;20.890;2022-12-07T07:42:57;14.20;;;8.63;;
42084;SDS011;27746;52.228;20.890;2022-12-07T07:45:25;16.35;;;9.48;;
42084;SDS011;27746;52.228;20.890;2022-12-07T07:47:52;15.85;;;8.25;;
42084;SDS011;27746;52.228;20.890;2022-12-07T07:50:20;15.20;;;8.13;;
42084;SDS011;27746;52.228;20.890;2022-12-07T07:52:47;15.10;;;9.15;;
42084;SDS011;27746;52.228;20.890;2022-12-07T07:55:14;19.63;;;9.27;;
42084;SDS011;27746;52.228;20.890;2022-12-07T07:57:41;13.40;;;8.30;;
42084;SDS011;27746;52.228;20.890;2022-12-07T08:00:10;16.27;;;9.38;;
42084;SDS011;27746;52.228;20.890;2022-12-07T08:02:39;14.80;;;8.32;;
42084;SDS011;27746;52.228;20.890;2022-12-07T08:05:07;16.30;;;9.43;;
42084;SDS011;27746;52.228;20.890;2022-12-07T08:07:35;16.83;;;8.65;;
42084;SDS011;27746;52.228;20.890;2022-12-07T08:10:02;18.85;;;9.55;;
42084;SDS011;27746;52.228;20.890;2022-12-07T08:12:29;16.83;;;9.27;;
42084;SDS011;27746;52.228;20.890;2022-12-07T08:14:56;17.30;;;9.50;;
42084;SDS011;27746;52.228;20.890;2022-12-07T08:17:24;18.90;;;9.93;;
42084;SDS011;27746;52.228;20.890;2022-12-07T08:19:52;18.98;;;10.93;;
42084;SDS011;27746;52.228;20.890;2022-12-07T08:22:18;22.42;;;10.20;;
42084;SDS011;27746;52.228;20.890;2022-12-07T08:24:45;20.42;;;10.88;;
42084;SDS011;27746;52.228;20.890;2022-12-07T08:27:12;23.80;;;10.77;;
42084;SDS011;27746;52.228;20.890;2022-12-07T08:29:39;21.65;;;11.13;;
42084;SDS011;27746;52.228;20.890;2022-12-07T08:32:06;21.17;;;11.55;;
42084;SDS011;27746;52.228;20.890;2022-12-07T08:34:35;21.70;;;10.63;;
42084;SDS011;27746;52.228;20.890;2022-12-07T08:37:02;21.02;;;10.85;;
42084;SDS011;27746;52.228;20.890;2022-12-07T08:39:29;23.60;;;12.88;;
42084;SDS011;27746;52.228;20.890;2022-12-07T08:41:56;21.50;;;11.52;;
42084;SDS011;27746;52.228;20.890;2022-12-07T08:44:23;27.52;;;12.18;;
42084;SDS011;27746;52.228;20.890;2022-12-07T08:46:51;25.38;;;13.32;;
42084;SDS011;27746;52.228;20.890;2022-12-07T08:49:21;27.25;;;13.73;;
42084;SDS011;27746;52.228;20.890;2022-12-07T08:51:52;26.52;;;13.20;;
42084;SDS011;27746;52.228;20.890;2022-12-07T08:54:20;27.88;;;13.85;;
42084;SDS011;27746;52.228;20.890;2022-12-07T08:56:48;28.08;;;14.07;;
42084;SDS011;27746;52.228;20.890;2022-12-07T08:59:17;29.27;;;14.20;;
42084;SDS011;27746;52.228;20.890;2022-12-07T09:01:45;29.52;;;15.15;;
42084;SDS011;27746;52.228;20.890;2022-12-07T09:04:12;29.90;;;13.52;;
42084;SDS011;27746;52.228;20.890;2022-12-07T09:06:38;27.63;;;14.43;;
42084;SDS011;27746;52.228;20.890;2022-12-07T09:09:07;29.27;;;14.18;;
42084;SDS011;27746;52.228;20.890;2022-12-07T09:11:35;30.95;;;13.95;;
42084;SDS011;27746;52.228;20.890;2022-12-07T09:14:02;27.75;;;14.75;;
42084;SDS011;27746;52.228;20.890;2022-12-07T09:16:29;30.23;;;14.30;;
42084;SDS011;27746;52.228;20.890;2022-12-07T09:18:56;31.25;;;13.98;;
42084;SDS011;27746;52.228;20.890;2022-12-07T09:21:22;25.70;;;13.15;;
42084;SDS011;27746;52.228;20.890;2022-12-07T09:23:49;28.55;;;13.00;;
42084;SDS011;27746;52.228;20.890;2022-12-07T09:26:17;28.35;;;14.05;;
42084;SDS011;27746;52.228;20.890;2022-12-07T09:28:44;26.98;;;12.90;;
42084;SDS011;27746;52.228;20.890;2022-12-07T09:31:11;27.95;;;12.02;;
42084;SDS011;27746;52.228;20.890;2022-12-07T09:33:38;26.75;;;11.88;;
42084;SDS011;27746;52.228;20.890;2022-12-07T09:36:06;25.85;;;12.65;;
42084;SDS011;27746;52.228;20.890;2022-12-07T09:38:35;30.17;;;12.57;;
42084;SDS011;27746;52.228;20.890;2022-12-07T09:41:04;27.02;;;13.27;;
42084;SDS011;27746;52.228;20.890;2022-12-07T09:43:33;29.63;;;13.23;;
42084;SDS011;27746;52.228;20.890;2022-12-07T09:46:02;24.33;;;12.55;;
42084;SDS011;27746;52.228;20.890;2022-12-07T09:48:30;27.98;;;13.07;;
42084;SDS011;27746;52.228;20.890;2022-12-07T09:51:01;26.33;;;11.70;;
42084;SDS011;27746;52.228;20.890;2022-12-07T09:53:36;23.77;;;12.00;;
42084;SDS011;27746;52.228;20.890;2022-12-07T09:56:04;23.67;;;12.15;;
42084;SDS011;27746;52.228;20.890;2022-12-07T09:58:32;24.70;;;12.13;;
42084;SDS011;27746;52.228;20.890;2022-12-07T10:01:05;27.17;;;11.60;;
42084;SDS011;27746;52.228;20.890;2022-12-07T10:03:39;30.50;;;13.02;;
42084;SDS011;27746;52.228;20.890;2022-12-07T10:06:10;22.48;;;11.10;;
42084;SDS011;27746;52.228;20.890;2022-12-07T10:08:41;30.30;;;12.75;;
42084;SDS011;27746;52.228;20.890;2022-12-07T10:11:08;26.77;;;12.48;;
42084;SDS011;27746;52.228;20.890;2022-12-07T10:13:39;22.70;;;11.05;;
42084;SDS011;27746;52.228;20.890;2022-12-07T10:16:09;24.42;;;11.57;;
42084;SDS011;27746;52.228;20.890;2022-12-07T10:18:58;24.98;;;11.55;;
42084;SDS011;27746;52.228;20.890;2022-12-07T10:21:47;22.20;;;11.55;;
42084;SDS011;27746;52.228;20.890;2022-12-07T10:24:31;24.70;;;11.45;;
42084;SDS011;27746;52.228;20.890;2022-12-07T10:26:58;25.25;;;11.13;;
42084;SDS011;27746;52.228;20.890;2022-12-07T10:29:30;24.88;;;11.68;;
42084;SDS011;27746;52.228;20.890;2022-12-07T10:32:00;25.63;;;12.02;;
42084;SDS011;27746;52.228;20.890;2022-12-07T10:34:29;24.83;;;11.00;;
42084;SDS011;27746;52.228;20.890;2022-12-07T10:39:57;23.40;;;11.80;;
42084;SDS011;27746;52.228;20.890;2022-12-07T10:42:25;21.92;;;11.48;;
42084;SDS011;27746;52.228;20.890;2022-12-07T10:45:08;21.02;;;10.93;;
42084;SDS011;27746;52.228;20.890;2022-12-07T10:47:36;22.13;;;11.30;;
42084;SDS011;27746;52.228;20.890;2022-12-07T10:53:01;24.77;;;12.48;;
42084;SDS011;27746;52.228;20.890;2022-12-07T10:55:41;19.83;;;10.20;;
42084;SDS011;27746;52.228;20.890;2022-12-07T10:58:29;21.45;;;10.85;;
42084;SDS011;27746;52.228;20.890;2022-12-07T11:01:09;20.85;;;11.20;;
42084;SDS011;27746;52.228;20.890;2022-12-07T11:03:46;17.77;;;10.05;;
42084;SDS011;27746;52.228;20.890;2022-12-07T11:06:23;20.33;;;11.02;;
42084;SDS011;27746;52.228;20.890;2022-12-07T11:09:00;22.48;;;11.57;;
42084;SDS011;27746;52.228;20.890;2022-12-07T11:11:43;20.95;;;11.85;;
42084;SDS011;27746;52.228;20.890;2022-12-07T11:14:19;22.08;;;11.43;;
42084;SDS011;27746;52.228;20.890;2022-12-07T11:16:55;16.67;;;10.32;;
42084;SDS011;27746;52.228;20.890;2022-12-07T11:19:28;19.88;;;11.65;;
42084;SDS011;27746;52.228;20.890;2022-12-07T11:22:09;20.73;;;11.27;;
42084;SDS011;27746;52.228;20.890;2022-12-07T11:24:43;22.63;;;11.48;;
42084;SDS011;27746;52.228;20.890;2022-12-07T11:27:19;22.05;;;11.75;;
42084;SDS011;27746;52.228;20.890;2022-12-07T11:30:03;21.15;;;10.40;;
42084;SDS011;27746;52.228;20.890;2022-12-07T11:32:49;22.67;;;12.45;;
42084;SDS011;27746;52.228;20.890;2022-12-07T11:35:29;22.90;;;12.07;;
42084;SDS011;27746;52.228;20.890;2022-12-07T11:38:10;24.27;;;12.52;;
42084;SDS011;27746;52.228;20.890;2022-12-07T11:40:40;25.58;;;12.27;;
42084;SDS011;27746;52.228;20.890;2022-12-07T11:43:13;20.25;;;10.60;;
42084;SDS011;27746;52.228;20.890;2022-12-07T11:45:47;21.15;;;10.93;;
42084;SDS011;27746;52.228;20.890;2022-12-07T11:48:22;20.77;;;12.32;;
42084;SDS011;27746;52.228;20.890;2022-12-07T11:50:58;21.02;;;10.73;;
42084;SDS011;27746;52.228;20.890;2022-12-07T11:53:27;22.48;;;12.00;;
42084;SDS011;27746;52.228;20.890;2022-12-07T11:56:00;19.05;;;10.75;;
42084;SDS011;27746;52.228;20.890;2022-12-07T11:58:42;20.58;;;11.07;;
42084;SDS011;27746;52.228;20.890;2022-12-07T12:01:16;21.52;;;9.90;;
42084;SDS011;27746;52.228;20.890;2022-12-07T12:03:53;18.60;;;10.10;;
42084;SDS011;27746;52.228;20.890;2022-12-07T12:06:26;18.55;;;10.60;;
42084;SDS011;27746;52.228;20.890;2022-12-07T12:08:54;19.05;;;10.13;;
42084;SDS011;27746;52.228;20.890;2022-12-07T12:11:31;21.10;;;11.65;;
42084;SDS011;27746;52.228;20.890;2022-12-07T12:14:13;23.70;;;11.20;;
42084;SDS011;27746;52.228;20.890;2022-12-07T12:17:15;21.58;;;10.77;;
42084;SDS011;27746;52.228;20.890;2022-12-07T12:20:05;25.00;;;12.05;;
42084;SDS011;27746;52.228;20.890;2022-12-07T12:22:43;27.08;;;13.00;;
42084;SDS011;27746;52.228;20.890;2022-12-07T12:25:15;26.60;;;11.65;;
42084;SDS011;27746;52.228;20.890;2022-12-07T12:27:57;20.15;;;11.20;;
42084;SDS011;27746;52.228;20.890;2022-12-07T12:30:28;19.85;;;11.45;;
42084;SDS011;27746;52.228;20.890;2022-12-07T12:33:01;17.95;;;9.88;;
42084;SDS011;27746;52.228;20.890;2022-12-07T12:35:39;21.08;;;11.20;;
42084;SDS011;27746;52.228;20.890;2022-12-07T12:40:55;22.85;;;11.75;;
42084;SDS011;27746;52.228;20.890;2022-12-07T12:43:43;22.83;;;11.45;;
42084;SDS011;27746;52.228;20.890;2022-12-07T12:55:42;22.13;;;11.20;;
42084;SDS011;27746;52.228;20.890;2022-12-07T12:58:29;21.27;;;11.15;;
42084;SDS011;27746;52.228;20.890;2022-12-07T13:07:02;12.98;;;7.45;;
42084;SDS011;27746;52.228;20.890;2022-12-07T13:09:31;15.48;;;7.43;;
42084;SDS011;27746;52.228;20.890;2022-12-07T13:12:03;14.80;;;7.38;;
42084;SDS011;27746;52.228;20.890;2022-12-07T13:14:54;14.65;;;8.73;;
42084;SDS011;27746;52.228;20.890;2022-12-07T13:20:45;14.73;;;7.13;;
42084;SDS011;27746;52.228;20.890;2022-12-07T13:23:14;12.98;;;7.93;;
42084;SDS011;27746;52.228;20.890;2022-12-07T13:25:48;16.52;;;8.90;;
42084;SDS011;27746;52.228;20.890;2022-12-07T13:28:22;13.25;;;7.82;;
42084;SDS011;27746;52.228;20.890;2022-12-07T13:33:45;17.02;;;9.27;;
42084;SDS011;27746;52.228;20.890;2022-12-07T13:36:20;16.77;;;9.10;;
42084;SDS011;27746;52.228;20.890;2022-12-07T13:38:50;20.45;;;10.23;;
42084;SDS011;27746;52.228;20.890;2022-12-07T13:41:20;19.35;;;10.38;;
42084;SDS011;27746;52.228;20.890;2022-12-07T13:43:50;17.80;;;10.80;;
42084;SDS011;27746;52.228;20.890;2022-12-07T13:46:20;18.88;;;10.40;;
42084;SDS011;27746;52.228;20.890;2022-12-07T13:48:52;17.98;;;9.93;;
42084;SDS011;27746;52.228;20.890;2022-12-07T13:51:21;18.13;;;9.98;;
42084;SDS011;27746;52.228;20.890;2022-12-07T13:54:06;24.10;;;12.50;;
42084;SDS011;27746;52.228;20.890;2022-12-07T13:56:36;23.50;;;12.38;;
42084;SDS011;27746;52.228;20.890;2022-12-07T13:59:07;27.52;;;13.50;;
42084;SDS011;27746;52.228;20.890;2022-12-07T14:01:40;25.98;;;13.50;;
42084;SDS011;27746;52.228;20.890;2022-12-07T14:04:16;28.23;;;13.82;;
42084;SDS011;27746;52.228;20.890;2022-12-07T14:06:56;30.17;;;15.35;;
42084;SDS011;27746;52.228;20.890;2022-12-07T14:09:24;22.08;;;14.30;;
42084;SDS011;27746;52.228;20.890;2022-12-07T14:11:52;26.10;;;14.73;;
42084;SDS011;27746;52.228;20.890;2022-12-07T14:14:22;26.05;;;15.05;;
42084;SDS011;27746;52.228;20.890;2022-12-07T14:16:55;26.10;;;14.38;;
42084;SDS011;27746;52.228;20.890;2022-12-07T14:19:44;27.03;;;14.50;;
42084;SDS011;27746;52.228;20.890;2022-12-07T14:22:20;29.33;;;14.93;;
42084;SDS011;27746;52.228;20.890;2022-12-07T14:24:58;26.60;;;15.50;;
42084;SDS011;27746;52.228;20.890;2022-12-07T14:27:30;27.17;;;16.10;;
42084;SDS011;27746;52.228;20.890;2022-12-07T14:30:00;31.95;;;17.77;;
42084;SDS011;27746;52.228;20.890;2022-12-07T14:32:28;36.00;;;16.95;;
42084;SDS011;27746;52.228;20.890;2022-12-07T14:34:56;26.73;;;14.65;;
42084;SDS011;27746;52.228;20.890;2022-12-07T14:37:26;31.98;;;17.05;;
42084;SDS011;27746;52.228;20.890;2022-12-07T14:39:53;31.42;;;16.70;;
42084;SDS011;27746;52.228;20.890;2022-12-07T14:42:20;30.40;;;15.63;;
42084;SDS011;27746;52.228;20.890;2022-12-07T14:44:51;34.53;;;18.63;;
42084;SDS011;27746;52.228;20.890;2022-12-07T14:47:19;35.40;;;17.25;;
42084;SDS011;27746;52.228;20.890;2022-12-07T14:49:46;29.60;;;15.80;;
42084;SDS011;27746;52.228;20.890;2022-12-07T14:52:13;28.65;;;14.90;;
42084;SDS011;27746;52.228;20.890;2022-12-07T14:54:43;29.08;;;15.48;;
42084;SDS011;27746;52.228;20.890;2022-12-07T14:57:10;30.80;;;16.17;;
42084;SDS011;27746;52.228;20.890;2022-12-07T14:59:37;32.78;;;16.98;;
42084;SDS011;27746;52.228;20.890;2022-12-07T15:02:05;31.05;;;15.93;;
42084;SDS011;27746;52.228;20.890;2022-12-07T15:04:33;31.70;;;16.90;;
42084;SDS011;27746;52.228;20.890;2022-12-07T15:07:01;33.45;;;16.98;;
42084;SDS011;27746;52.228;20.890;2022-12-07T15:09:30;35.45;;;18.48;;